sensor_id;sensor_type;location;lat;lon;timestamp;pressure;altitude;pressure_sealevel;temperature;humidity
23318;BME280;11831;55.918;37.746;2022-11-15T00:00:15;99939.16;;;3.46;0.00
23318;BME280;11831;55.918;37.746;2022-11-15T00:03:00;99943.00;;;3.27;0.00
23318;BME280;11831;55.918;37.746;2022-11-15T00:05:46;99953.13;;;3.15;0.00
23318;BME280;11831;55.918;37.746;2022-11-15T00:08:32;99954.44;;;2.54;0.00
23318;BME280;11831;55.918;37.746;2022-11-15T00:11:18;99952.47;;;2.72;0.00
23318;BME280;11831;55.918;37.746;2022-11-15T00:14:03;99954.13;;;2.82;0.00
23318;BME280;11831;55.918;37.746;2022-11-15T00:16:47;99947.84;;;2.83;0.00
23318;BME280;11831;55.918;37.746;2022-11-15T00:19:32;99945.66;;;2.37;0.00
23318;BME280;11831;55.918;37.746;2022-11-15T00:22:17;99942.22;;;2.69;0.00
23318;BME280;11831;55.918;37.746;2022-11-15T00:25:02;99950.88;;;2.05;0.00
23318;BME280;11831;55.918;37.746;2022-11-15T00:27:47;99939.00;;;2.01;0.00
23318;BME280;11831;55.918;37.746;2022-11-15T00:30:32;99937.78;;;2.54;0.00
23318;BME280;11831;55.918;37.746;2022-11-15T00:33:17;99940.03;;;2.16;0.00
23318;BME280;11831;55.918;37.746;2022-11-15T00:36:06;99931.31;;;2.24;0.00
23318;BME280;11831;55.918;37.746;2022-11-15T00:38:51;99928.66;;;2.24;0.00
23318;BME280;11831;55.918;37.746;2022-11-15T00:41:36;99934.13;;;2.22;0.00
23318;BME280;11831;55.918;37.746;2022-11-15T00:44:21;99935.25;;;1.69;0.00
23318;BME280;11831;55.918;37.746;2022-11-15T00:47:06;99927.94;;;1.89;0.00
23318;BME280;11831;55.918;37.746;2022-11-15T00:49:51;99928.69;;;1.39;0.00
23318;BME280;11831;55.918;37.746;2022-11-15T00:52:36;99917.06;;;1.92;0.00
23318;BME280;11831;55.918;37.746;2022-11-15T00:55:21;99913.59;;;2.00;0.00
23318;BME280;11831;55.918;37.746;2022-11-15T00:58:07;99918.44;;;1.62;0.00
23318;BME280;11831;55.918;37.746;2022-11-15T01:00:53;99918.72;;;2.01;0.00
23318;BME280;11831;55.918;37.746;2022-11-15T01:03:40;99913.59;;;2.00;0.00
23318;BME280;11831;55.918;37.746;2022-11-15T01:06:25;99911.94;;;1.91;0.00
23318;BME280;11831;55.918;37.746;2022-11-15T01:09:10;99902.47;;;1.72;0.00
23318;BME280;11831;55.918;37.746;2022-11-15T01:11:56;99896.66;;;2.18;0.00
23318;BME280;11831;55.918;37.746;2022-11-15T01:14:40;99899.75;;;1.90;0.00
23318;BME280;11831;55.918;37.746;2022-11-15T01:17:25;99899.66;;;1.65;0.00
23318;BME280;11831;55.918;37.746;2022-11-15T01:20:11;99902.56;;;1.20;0.00
23318;BME280;11831;55.918;37.746;2022-11-15T01:22:56;99905.16;;;0.86;0.00
23318;BME280;11831;55.918;37.746;2022-11-15T01:25:41;99887.22;;;1.49;0.00
23318;BME280;11831;55.918;37.746;2022-11-15T01:28:33;99889.88;;;0.89;0.00
23318;BME280;11831;55.918;37.746;2022-11-15T01:31:20;99878.94;;;1.36;0.00
23318;BME280;11831;55.918;37.746;2022-11-15T01:34:05;99879.47;;;2.06;0.00
23318;BME280;11831;55.918;37.746;2022-11-15T01:36:50;99879.59;;;1.80;0.00
23318;BME280;11831;55.918;37.746;2022-11-15T01:39:35;99884.31;;;2.19;0.00
23318;BME280;11831;55.918;37.746;2022-11-15T01:42:21;99876.19;;;1.96;0.00
23318;BME280;11831;55.918;37.746;2022-11-15T01:45:13;99876.50;;;1.93;0.00
23318;BME280;11831;55.918;37.746;2022-11-15T01:47:59;99872.72;;;2.12;0.00
23318;BME280;11831;55.918;37.746;2022-11-15T01:50:44;99866.28;;;1.98;0.00
23318;BME280;11831;55.918;37.746;2022-11-15T01:53:29;99868.47;;;2.19;0.00
23318;BME280;11831;55.918;37.746;2022-11-15T01:56:20;99874.41;;;2.54;0.00
23318;BME280;11831;55.918;37.746;2022-11-15T01:59:08;99876.22;;;2.29;0.00
23318;BME280;11831;55.918;37.746;2022-11-15T02:01:53;99876.56;;;2.26;0.00
23318;BME280;11831;55.918;37.746;2022-11-15T02:04:44;99868.00;;;2.48;0.00
23318;BME280;11831;55.918;37.746;2022-11-15T02:07:31;99863.69;;;2.55;0.00
23318;BME280;11831;55.918;37.746;2022-11-15T02:10:19;99880.34;;;1.57;0.00
23318;BME280;11831;55.918;37.746;2022-11-15T02:13:04;99867.34;;;2.46;0.00
23318;BME280;11831;55.918;37.746;2022-11-15T02:19:00;99875.41;;;1.19;0.00
23318;BME280;11831;55.918;37.746;2022-11-15T02:28:06;99875.78;;;1.24;0.00
23318;BME280;11831;55.918;37.746;2022-11-15T02:34:06;99864.75;;;1.29;0.00
23318;BME280;11831;55.918;37.746;2022-11-15T02:37:15;99867.19;;;1.57;0.00
23318;BME280;11831;55.918;37.746;2022-11-15T02:42:57;99862.19;;;2.04;0.00
23318;BME280;11831;55.918;37.746;2022-11-15T02:46:17;99855.44;;;1.09;0.00
23318;BME280;11831;55.918;37.746;2022-11-15T02:49:05;99857.91;;;1.52;0.00
23318;BME280;11831;55.918;37.746;2022-11-15T02:51:50;99848.44;;;1.26;0.00
23318;BME280;11831;55.918;37.746;2022-11-15T02:54:37;99851.31;;;1.06;0.00
23318;BME280;11831;55.918;37.746;2022-11-15T02:57:51;99842.25;;;1.51;0.00
23318;BME280;11831;55.918;37.746;2022-11-15T03:07:00;99841.72;;;1.31;0.00
23318;BME280;11831;55.918;37.746;2022-11-15T03:18:47;99824.91;;;1.32;0.00
23318;BME280;11831;55.918;37.746;2022-11-15T03:21:34;99843.06;;;0.75;0.00
23318;BME280;11831;55.918;37.746;2022-11-15T03:24:23;99836.22;;;0.90;0.00
23318;BME280;11831;55.918;37.746;2022-11-15T03:27:13;99821.62;;;0.96;0.00
23318;BME280;11831;55.918;37.746;2022-11-15T03:30:03;99822.03;;;1.09;0.00
23318;BME280;11831;55.918;37.746;2022-11-15T03:32:56;99830.97;;;0.39;0.00
23318;BME280;11831;55.918;37.746;2022-11-15T03:35:44;99819.72;;;0.80;0.00
23318;BME280;11831;55.918;37.746;2022-11-15T03:38:31;99821.41;;;0.89;0.00
23318;BME280;11831;55.918;37.746;2022-11-15T03:41:26;99832.03;;;1.06;0.00
23318;BME280;11831;55.918;37.746;2022-11-15T03:44:26;99829.84;;;0.41;0.00
23318;BME280;11831;55.918;37.746;2022-11-15T03:50:21;99828.59;;;0.53;0.00
23318;BME280;11831;55.918;37.746;2022-11-15T03:53:07;99821.66;;;1.38;0.00
23318;BME280;11831;55.918;37.746;2022-11-15T03:55:52;99828.31;;;1.67;0.00
23318;BME280;11831;55.918;37.746;2022-11-15T03:58:37;99820.88;;;0.78;0.00
23318;BME280;11831;55.918;37.746;2022-11-15T04:01:22;99815.06;;;0.66;0.00
23318;BME280;11831;55.918;37.746;2022-11-15T04:04:07;99812.66;;;0.81;0.00
23318;BME280;11831;55.918;37.746;2022-11-15T04:06:52;99809.19;;;0.80;0.00
23318;BME280;11831;55.918;37.746;2022-11-15T04:09:37;99810.19;;;0.53;0.00
23318;BME280;11831;55.918;37.746;2022-11-15T04:12:42;99811.66;;;1.08;0.00
23318;BME280;11831;55.918;37.746;2022-11-15T04:15:28;99807.00;;;0.42;0.00
23318;BME280;11831;55.918;37.746;2022-11-15T04:18:13;99803.47;;;0.85;0.00
23318;BME280;11831;55.918;37.746;2022-11-15T04:20:58;99813.03;;;0.34;0.00
23318;BME280;11831;55.918;37.746;2022-11-15T04:24:03;99798.94;;;0.69;0.00
23318;BME280;11831;55.918;37.746;2022-11-15T04:26:57;99807.00;;;1.02;0.00
23318;BME280;11831;55.918;37.746;2022-11-15T04:29:43;99819.09;;;0.35;0.00
23318;BME280;11831;55.918;37.746;2022-11-15T04:32:29;99810.19;;;0.79;0.00
23318;BME280;11831;55.918;37.746;2022-11-15T04:35:15;99807.81;;;0.94;0.00
23318;BME280;11831;55.918;37.746;2022-11-15T04:38:00;99798.97;;;0.77;0.00
23318;BME280;11831;55.918;37.746;2022-11-15T04:40:46;99802.41;;;1.04;0.00
23318;BME280;11831;55.918;37.746;2022-11-15T04:43:31;99807.53;;;0.79;0.00
23318;BME280;11831;55.918;37.746;2022-11-15T04:46:16;99797.59;;;1.41;0.00
23318;BME280;11831;55.918;37.746;2022-11-15T04:49:02;99787.84;;;2.16;0.00
23318;BME280;11831;55.918;37.746;2022-11-15T04:51:47;99794.38;;;1.72;0.00
23318;BME280;11831;55.918;37.746;2022-11-15T04:54:31;99789.44;;;1.69;0.00
23318;BME280;11831;55.918;37.746;2022-11-15T04:57:16;99785.09;;;1.35;0.00
23318;BME280;11831;55.918;37.746;2022-11-15T05:00:04;99782.63;;;1.50;0.00
23318;BME280;11831;55.918;37.746;2022-11-15T05:02:49;99782.91;;;1.22;0.00
23318;BME280;11831;55.918;37.746;2022-11-15T05:05:52;99782.94;;;1.39;0.00
23318;BME280;11831;55.918;37.746;2022-11-15T05:08:37;99786.47;;;1.80;0.00
23318;BME280;11831;55.918;37.746;2022-11-15T05:11:22;99780.41;;;0.79;0.00
23318;BME280;11831;55.918;37.746;2022-11-15T05:14:06;99785.13;;;1.01;0.00
23318;BME280;11831;55.918;37.746;2022-11-15T05:16:51;99788.13;;;0.80;0.00
23318;BME280;11831;55.918;37.746;2022-11-15T05:19:35;99788.72;;;0.92;0.00
23318;BME280;11831;55.918;37.746;2022-11-15T05:22:21;99780.06;;;1.16;0.00
23318;BME280;11831;55.918;37.746;2022-11-15T05:25:07;99763.00;;;0.60;0.00
23318;BME280;11831;55.918;37.746;2022-11-15T05:27:52;99769.09;;;0.60;0.00
23318;BME280;11831;55.918;37.746;2022-11-15T05:30:37;99771.34;;;1.15;0.00
23318;BME280;11831;55.918;37.746;2022-11-15T05:33:23;99764.22;;;1.66;0.00
23318;BME280;11831;55.918;37.746;2022-11-15T05:39:10;99754.53;;;1.99;0.00
23318;BME280;11831;55.918;37.746;2022-11-15T05:42:11;99755.19;;;1.85;0.00
23318;BME280;11831;55.918;37.746;2022-11-15T05:44:56;99761.44;;;2.00;0.00
23318;BME280;11831;55.918;37.746;2022-11-15T05:47:43;99763.44;;;2.14;0.00
23318;BME280;11831;55.918;37.746;2022-11-15T05:50:29;99760.13;;;2.29;0.00
23318;BME280;11831;55.918;37.746;2022-11-15T05:53:16;99750.91;;;2.16;0.00
23318;BME280;11831;55.918;37.746;2022-11-15T05:56:04;99751.72;;;1.76;0.00
23318;BME280;11831;55.918;37.746;2022-11-15T05:58:52;99748.75;;;1.87;0.00
23318;BME280;11831;55.918;37.746;2022-11-15T06:01:38;99749.72;;;2.11;0.00
23318;BME280;11831;55.918;37.746;2022-11-15T06:04:24;99760.69;;;1.25;0.00
23318;BME280;11831;55.918;37.746;2022-11-15T06:07:09;99755.53;;;1.90;0.00
23318;BME280;11831;55.918;37.746;2022-11-15T06:09:54;99749.91;;;2.01;0.00
23318;BME280;11831;55.918;37.746;2022-11-15T06:12:39;99747.44;;;2.24;0.00
23318;BME280;11831;55.918;37.746;2022-11-15T06:15:25;99750.22;;;1.66;0.00
23318;BME280;11831;55.918;37.746;2022-11-15T06:18:09;99743.66;;;2.18;0.00
23318;BME280;11831;55.918;37.746;2022-11-15T06:20:58;99733.75;;;1.72;0.00
23318;BME280;11831;55.918;37.746;2022-11-15T06:23:43;99726.69;;;1.89;0.00
23318;BME280;11831;55.918;37.746;2022-11-15T06:26:28;99721.75;;;1.85;0.00
23318;BME280;11831;55.918;37.746;2022-11-15T06:29:13;99737.88;;;2.07;0.00
23318;BME280;11831;55.918;37.746;2022-11-15T06:31:58;99725.84;;;2.21;0.00
23318;BME280;11831;55.918;37.746;2022-11-15T06:34:42;99725.47;;;2.48;0.00
23318;BME280;11831;55.918;37.746;2022-11-15T06:37:29;99721.16;;;2.47;0.00
23318;BME280;11831;55.918;37.746;2022-11-15T06:40:15;99724.19;;;2.20;0.00
23318;BME280;11831;55.918;37.746;2022-11-15T06:43:00;99713.31;;;1.98;0.00
23318;BME280;11831;55.918;37.746;2022-11-15T06:45:45;99718.56;;;2.31;0.00
23318;BME280;11831;55.918;37.746;2022-11-15T06:48:31;99721.06;;;2.00;0.00
23318;BME280;11831;55.918;37.746;2022-11-15T06:51:16;99711.91;;;2.51;0.00
23318;BME280;11831;55.918;37.746;2022-11-15T06:54:00;99717.03;;;2.44;0.00
23318;BME280;11831;55.918;37.746;2022-11-15T06:56:45;99720.16;;;2.95;0.00
23318;BME280;11831;55.918;37.746;2022-11-15T06:59:30;99712.97;;;2.26;0.00
23318;BME280;11831;55.918;37.746;2022-11-15T07:02:15;99694.16;;;2.12;0.00
23318;BME280;11831;55.918;37.746;2022-11-15T07:05:01;99694.59;;;2.40;0.00
23318;BME280;11831;55.918;37.746;2022-11-15T07:07:51;99692.28;;;2.54;0.00
23318;BME280;11831;55.918;37.746;2022-11-15T07:10:36;99693.00;;;2.78;0.00
23318;BME280;11831;55.918;37.746;2022-11-15T07:13:24;99687.66;;;3.71;0.00
23318;BME280;11831;55.918;37.746;2022-11-15T07:16:10;99683.84;;;3.89;0.00
23318;BME280;11831;55.918;37.746;2022-11-15T07:18:56;99672.50;;;4.03;0.00
23318;BME280;11831;55.918;37.746;2022-11-15T07:21:41;99669.03;;;4.02;0.00
23318;BME280;11831;55.918;37.746;2022-11-15T07:24:26;99669.91;;;2.80;0.00
23318;BME280;11831;55.918;37.746;2022-11-15T07:27:10;99673.78;;;2.54;0.00
23318;BME280;11831;55.918;37.746;2022-11-15T07:29:55;99669.91;;;2.72;0.00
23318;BME280;11831;55.918;37.746;2022-11-15T07:32:40;99668.16;;;1.69;0.00
23318;BME280;11831;55.918;37.746;2022-11-15T07:35:27;99663.84;;;2.16;0.00
23318;BME280;11831;55.918;37.746;2022-11-15T07:38:12;99666.69;;;1.74;0.00
23318;BME280;11831;55.918;37.746;2022-11-15T07:41:04;99657.28;;;1.72;0.00
23318;BME280;11831;55.918;37.746;2022-11-15T07:43:52;99662.53;;;2.04;0.00
23318;BME280;11831;55.918;37.746;2022-11-15T07:46:37;99658.91;;;1.97;0.00
23318;BME280;11831;55.918;37.746;2022-11-15T07:49:22;99660.25;;;1.77;0.00
23318;BME280;11831;55.918;37.746;2022-11-15T07:52:07;99658.44;;;1.53;0.00
23318;BME280;11831;55.918;37.746;2022-11-15T07:54:51;99656.47;;;1.39;0.00
23318;BME280;11831;55.918;37.746;2022-11-15T07:57:36;99658.47;;;1.61;0.00
23318;BME280;11831;55.918;37.746;2022-11-15T08:00:21;99656.47;;;1.71;0.00
23318;BME280;11831;55.918;37.746;2022-11-15T08:03:08;99650.66;;;1.11;0.00
23318;BME280;11831;55.918;37.746;2022-11-15T08:05:53;99651.37;;;1.53;0.00
23318;BME280;11831;55.918;37.746;2022-11-15T08:08:38;99651.69;;;1.26;0.00
23318;BME280;11831;55.918;37.746;2022-11-15T08:11:23;99652.34;;;1.36;0.00
23318;BME280;11831;55.918;37.746;2022-11-15T08:14:08;99653.19;;;1.37;0.00
23318;BME280;11831;55.918;37.746;2022-11-15T08:16:54;99651.03;;;1.73;0.00
23318;BME280;11831;55.918;37.746;2022-11-15T08:19:39;99642.13;;;1.90;0.00
23318;BME280;11831;55.918;37.746;2022-11-15T08:22:24;99653.47;;;1.99;0.00
23318;BME280;11831;55.918;37.746;2022-11-15T08:25:08;99641.16;;;1.59;0.00
23318;BME280;11831;55.918;37.746;2022-11-15T08:27:55;99638.84;;;1.47;0.00
23318;BME280;11831;55.918;37.746;2022-11-15T08:30:42;99637.16;;;1.95;0.00
23318;BME280;11831;55.918;37.746;2022-11-15T08:33:27;99641.31;;;1.73;0.00
23318;BME280;11831;55.918;37.746;2022-11-15T08:36:16;99636.34;;;1.95;0.00
23318;BME280;11831;55.918;37.746;2022-11-15T08:39:01;99630.19;;;2.10;0.00
23318;BME280;11831;55.918;37.746;2022-11-15T08:41:46;99627.41;;;2.04;0.00
23318;BME280;11831;55.918;37.746;2022-11-15T08:44:30;99623.69;;;2.45;0.00
23318;BME280;11831;55.918;37.746;2022-11-15T08:47:15;99616.41;;;2.47;0.00
23318;BME280;11831;55.918;37.746;2022-11-15T08:50:00;99617.75;;;2.74;0.00
23318;BME280;11831;55.918;37.746;2022-11-15T08:52:45;99610.69;;;2.98;0.00
23318;BME280;11831;55.918;37.746;2022-11-15T08:55:32;99605.16;;;3.53;0.00
23318;BME280;11831;55.918;37.746;2022-11-15T08:58:20;99600.59;;;3.47;0.00
23318;BME280;11831;55.918;37.746;2022-11-15T09:01:05;99602.88;;;2.82;0.00
23318;BME280;11831;55.918;37.746;2022-11-15T09:03:50;99599.31;;;2.66;0.00
23318;BME280;11831;55.918;37.746;2022-11-15T09:06:35;99597.16;;;2.31;0.00
23318;BME280;11831;55.918;37.746;2022-11-15T09:09:20;99596.00;;;2.33;0.00
23318;BME280;11831;55.918;37.746;2022-11-15T09:12:06;99596.59;;;2.83;0.00
23318;BME280;11831;55.918;37.746;2022-11-15T09:14:51;99596.37;;;3.38;0.00
23318;BME280;11831;55.918;37.746;2022-11-15T09:17:36;99592.91;;;3.75;0.00
23318;BME280;11831;55.918;37.746;2022-11-15T09:20:21;99590.03;;;3.99;0.00
23318;BME280;11831;55.918;37.746;2022-11-15T09:23:06;99596.28;;;4.28;0.00
23318;BME280;11831;55.918;37.746;2022-11-15T09:25:52;99590.56;;;3.57;0.00
23318;BME280;11831;55.918;37.746;2022-11-15T09:28:37;99595.66;;;3.82;0.00
23318;BME280;11831;55.918;37.746;2022-11-15T09:31:22;99588.19;;;4.00;0.00
23318;BME280;11831;55.918;37.746;2022-11-15T09:34:07;99586.12;;;3.58;0.00
23318;BME280;11831;55.918;37.746;2022-11-15T09:36:52;99587.41;;;3.62;0.00
23318;BME280;11831;55.918;37.746;2022-11-15T09:39:36;99590.25;;;3.90;0.00
23318;BME280;11831;55.918;37.746;2022-11-15T09:48:16;99580.59;;;3.97;0.00
23318;BME280;11831;55.918;37.746;2022-11-15T09:50:49;99579.44;;;3.99;0.00
23318;BME280;11831;55.918;37.746;2022-11-15T09:53:35;99572.66;;;4.26;0.00
23318;BME280;11831;55.918;37.746;2022-11-15T09:56:17;99570.75;;;3.91;0.00
23318;BME280;11831;55.918;37.746;2022-11-15T09:59:15;99567.19;;;3.69;0.00
23318;BME280;11831;55.918;37.746;2022-11-15T10:04:31;99565.00;;;4.31;0.00
23318;BME280;11831;55.918;37.746;2022-11-15T10:07:14;99566.09;;;3.93;0.00
23318;BME280;11831;55.918;37.746;2022-11-15T10:12:16;99546.00;;;4.28;0.00
23318;BME280;11831;55.918;37.746;2022-11-15T10:14:45;99547.19;;;4.40;0.00
23318;BME280;11831;55.918;37.746;2022-11-15T10:17:40;99537.50;;;3.59;0.00
23318;BME280;11831;55.918;37.746;2022-11-15T10:20:19;99523.47;;;4.32;0.00
23318;BME280;11831;55.918;37.746;2022-11-15T10:22:52;99528.53;;;4.48;0.00
23318;BME280;11831;55.918;37.746;2022-11-15T10:25:24;99518.47;;;3.11;0.00
23318;BME280;11831;55.918;37.746;2022-11-15T10:28:21;99521.28;;;3.91;0.00
23318;BME280;11831;55.918;37.746;2022-11-15T10:30:53;99518.09;;;3.96;0.00
23318;BME280;11831;55.918;37.746;2022-11-15T10:33:36;99526.31;;;3.19;0.00
23318;BME280;11831;55.918;37.746;2022-11-15T10:44:18;99521.22;;;4.50;0.00
23318;BME280;11831;55.918;37.746;2022-11-15T10:49:30;99506.25;;;3.92;0.00
23318;BME280;11831;55.918;37.746;2022-11-15T10:57:17;99492.84;;;4.44;0.00
23318;BME280;11831;55.918;37.746;2022-11-15T11:00:26;99493.81;;;3.33;0.00
23318;BME280;11831;55.918;37.746;2022-11-15T11:05:34;99486.97;;;3.98;0.00
23318;BME280;11831;55.918;37.746;2022-11-15T11:08:23;99483.06;;;3.94;0.00
23318;BME280;11831;55.918;37.746;2022-11-15T11:10:57;99477.75;;;3.35;0.00
23318;BME280;11831;55.918;37.746;2022-11-15T11:21:58;99463.91;;;3.33;0.00
23318;BME280;11831;55.918;37.746;2022-11-15T11:28:23;99460.91;;;3.36;0.00
23318;BME280;11831;55.918;37.746;2022-11-15T11:30:21;99452.34;;;3.93;0.00
23318;BME280;11831;55.918;37.746;2022-11-15T11:35:37;99440.94;;;3.92;0.00
23318;BME280;11831;55.918;37.746;2022-11-15T11:44:07;99432.84;;;3.64;0.00
23318;BME280;11831;55.918;37.746;2022-11-15T11:47:37;99430.16;;;4.09;0.00
23318;BME280;11831;55.918;37.746;2022-11-15T11:50:41;99430.56;;;3.61;0.00
23318;BME280;11831;55.918;37.746;2022-11-15T11:55:28;99427.16;;;3.97;0.00
23318;BME280;11831;55.918;37.746;2022-11-15T11:58:09;99429.37;;;3.79;0.00
23318;BME280;11831;55.918;37.746;2022-11-15T12:00:41;99411.19;;;3.90;0.00
23318;BME280;11831;55.918;37.746;2022-11-15T12:03:14;99422.97;;;3.88;0.00
23318;BME280;11831;55.918;37.746;2022-11-15T12:06:02;99425.72;;;3.65;0.00
23318;BME280;11831;55.918;37.746;2022-11-15T12:11:43;99420.28;;;3.37;0.00
23318;BME280;11831;55.918;37.746;2022-11-15T12:14:48;99428.38;;;3.21;0.00
23318;BME280;11831;55.918;37.746;2022-11-15T12:17:21;99417.44;;;3.53;0.00
23318;BME280;11831;55.918;37.746;2022-11-15T12:19:49;99416.06;;;3.72;0.00
23318;BME280;11831;55.918;37.746;2022-11-15T12:22:44;99411.38;;;3.00;0.00
23318;BME280;11831;55.918;37.746;2022-11-15T12:25:20;99406.28;;;2.84;0.00
23318;BME280;11831;55.918;37.746;2022-11-15T12:27:53;99411.00;;;2.89;0.00
23318;BME280;11831;55.918;37.746;2022-11-15T12:30:23;99402.25;;;2.28;0.00
23318;BME280;11831;55.918;37.746;2022-11-15T12:32:52;99410.69;;;3.06;0.00
23318;BME280;11831;55.918;37.746;2022-11-15T12:35:42;99397.44;;;2.92;0.00
23318;BME280;11831;55.918;37.746;2022-11-15T12:38:10;99400.56;;;3.25;0.00
23318;BME280;11831;55.918;37.746;2022-11-15T12:40:39;99396.38;;;3.60;0.00
23318;BME280;11831;55.918;37.746;2022-11-15T12:43:41;99389.47;;;3.15;0.00
23318;BME280;11831;55.918;37.746;2022-11-15T12:48:57;99388.00;;;3.56;0.00
23318;BME280;11831;55.918;37.746;2022-11-15T12:59:53;99366.97;;;2.29;0.00
23318;BME280;11831;55.918;37.746;2022-11-15T13:02:35;99368.97;;;2.64;0.00
23318;BME280;11831;55.918;37.746;2022-11-15T13:13:07;99369.69;;;3.25;0.00
23318;BME280;11831;55.918;37.746;2022-11-15T13:15:53;99354.38;;;2.76;0.00
23318;BME280;11831;55.918;37.746;2022-11-15T13:18:26;99355.34;;;2.75;0.00
23318;BME280;11831;55.918;37.746;2022-11-15T13:20:54;99350.75;;;2.55;0.00
23318;BME280;11831;55.918;37.746;2022-11-15T13:23:22;99342.84;;;2.32;0.00
23318;BME280;11831;55.918;37.746;2022-11-15T13:28:32;99332.56;;;2.22;0.00
23318;BME280;11831;55.918;37.746;2022-11-15T13:31:47;99338.00;;;2.21;0.00
23318;BME280;11831;55.918;37.746;2022-11-15T13:33:48;99330.00;;;2.52;0.00
23318;BME280;11831;55.918;37.746;2022-11-15T13:36:21;99335.00;;;2.01;0.00
23318;BME280;11831;55.918;37.746;2022-11-15T13:39:01;99334.22;;;2.38;0.00
23318;BME280;11831;55.918;37.746;2022-11-15T13:41:30;99327.75;;;2.03;0.00
23318;BME280;11831;55.918;37.746;2022-11-15T13:43:58;99319.06;;;2.17;0.00
23318;BME280;11831;55.918;37.746;2022-11-15T13:46:26;99326.28;;;2.61;0.00
23318;BME280;11831;55.918;37.746;2022-11-15T13:48:57;99321.19;;;1.99;0.00
23318;BME280;11831;55.918;37.746;2022-11-15T13:51:30;99317.28;;;1.33;0.00
23318;BME280;11831;55.918;37.746;2022-11-15T13:56:59;99311.34;;;1.93;0.00
23318;BME280;11831;55.918;37.746;2022-11-15T13:59:30;99311.72;;;1.81;0.00
23318;BME280;11831;55.918;37.746;2022-11-15T14:02:01;99306.75;;;2.09;0.00
23318;BME280;11831;55.918;37.746;2022-11-15T14:04:29;99310.16;;;1.95;0.00
23318;BME280;11831;55.918;37.746;2022-11-15T14:07:00;99305.34;;;2.22;0.00
23318;BME280;11831;55.918;37.746;2022-11-15T14:09:32;99304.72;;;1.97;0.00
23318;BME280;11831;55.918;37.746;2022-11-15T14:12:19;99300.81;;;2.30;0.00
23318;BME280;11831;55.918;37.746;2022-11-15T14:14:48;99306.87;;;2.54;0.00
23318;BME280;11831;55.918;37.746;2022-11-15T14:19:55;99301.38;;;2.03;0.00
23318;BME280;11831;55.918;37.746;2022-11-15T14:22:26;99295.16;;;1.73;0.00
23318;BME280;11831;55.918;37.746;2022-11-15T14:27:40;99290.34;;;1.99;0.00
23318;BME280;11831;55.918;37.746;2022-11-15T14:30:13;99290.47;;;1.60;0.00
23318;BME280;11831;55.918;37.746;2022-11-15T14:32:49;99285.03;;;1.84;0.00
23318;BME280;11831;55.918;37.746;2022-11-15T14:35:19;99287.66;;;1.62;0.00
23318;BME280;11831;55.918;37.746;2022-11-15T14:37:46;99284.66;;;2.10;0.00
23318;BME280;11831;55.918;37.746;2022-11-15T14:40:16;99279.44;;;2.02;0.00
23318;BME280;11831;55.918;37.746;2022-11-15T14:42:47;99278.38;;;2.11;0.00
23318;BME280;11831;55.918;37.746;2022-11-15T14:45:20;99279.75;;;1.31;0.00
23318;BME280;11831;55.918;37.746;2022-11-15T14:47:47;99278.31;;;1.51;0.00
23318;BME280;11831;55.918;37.746;2022-11-15T14:50:19;99271.78;;;1.70;0.00
23318;BME280;11831;55.918;37.746;2022-11-15T14:52:46;99266.69;;;1.68;0.00
23318;BME280;11831;55.918;37.746;2022-11-15T14:55:25;99269.37;;;1.83;0.00
23318;BME280;11831;55.918;37.746;2022-11-15T14:57:52;99266.31;;;1.71;0.00
23318;BME280;11831;55.918;37.746;2022-11-15T15:00:20;99262.28;;;1.61;0.00
23318;BME280;11831;55.918;37.746;2022-11-15T15:02:48;99263.44;;;1.81;0.00
23318;BME280;11831;55.918;37.746;2022-11-15T15:05:43;99269.78;;;1.95;0.00
23318;BME280;11831;55.918;37.746;2022-11-15T15:08:11;99259.66;;;1.61;0.00
23318;BME280;11831;55.918;37.746;2022-11-15T15:10:41;99259.47;;;1.62;0.00
23318;BME280;11831;55.918;37.746;2022-11-15T15:13:22;99260.69;;;1.74;0.00
23318;BME280;11831;55.918;37.746;2022-11-15T15:15:50;99249.41;;;1.66;0.00
23318;BME280;11831;55.918;37.746;2022-11-15T15:18:18;99258.00;;;1.82;0.00
23318;BME280;11831;55.918;37.746;2022-11-15T15:20:49;99246.78;;;1.35;0.00
23318;BME280;11831;55.918;37.746;2022-11-15T15:23:19;99244.53;;;1.54;0.00
23318;BME280;11831;55.918;37.746;2022-11-15T15:25:47;99255.22;;;1.84;0.00
23318;BME280;11831;55.918;37.746;2022-11-15T15:28:15;99243.94;;;1.67;0.00
23318;BME280;11831;55.918;37.746;2022-11-15T15:30:41;99243.06;;;1.75;0.00
23318;BME280;11831;55.918;37.746;2022-11-15T15:33:08;99241.06;;;1.77;0.00
23318;BME280;11831;55.918;37.746;2022-11-15T15:35:34;99234.69;;;1.71;0.00
23318;BME280;11831;55.918;37.746;2022-11-15T15:38:01;99240.72;;;1.80;0.00
23318;BME280;11831;55.918;37.746;2022-11-15T15:40:31;99232.78;;;2.03;0.00
23318;BME280;11831;55.918;37.746;2022-11-15T15:42:58;99231.16;;;2.02;0.00
23318;BME280;11831;55.918;37.746;2022-11-15T15:45:25;99220.75;;;1.63;0.00
23318;BME280;11831;55.918;37.746;2022-11-15T15:47:53;99217.47;;;1.61;0.00
23318;BME280;11831;55.918;37.746;2022-11-15T15:50:29;99210.59;;;1.51;0.00
23318;BME280;11831;55.918;37.746;2022-11-15T15:52:58;99209.06;;;2.03;0.00
23318;BME280;11831;55.918;37.746;2022-11-15T15:55:25;99205.69;;;1.71;0.00
23318;BME280;11831;55.918;37.746;2022-11-15T15:57:52;99201.50;;;2.00;0.00
23318;BME280;11831;55.918;37.746;2022-11-15T16:00:20;99200.56;;;2.15;0.00
23318;BME280;11831;55.918;37.746;2022-11-15T16:02:49;99205.06;;;1.69;0.00
23318;BME280;11831;55.918;37.746;2022-11-15T16:05:16;99196.97;;;1.48;0.00
23318;BME280;11831;55.918;37.746;2022-11-15T16:07:44;99187.34;;;1.09;0.00
23318;BME280;11831;55.918;37.746;2022-11-15T16:10:18;99201.63;;;1.83;0.00
23318;BME280;11831;55.918;37.746;2022-11-15T16:12:45;99200.94;;;1.90;0.00
23318;BME280;11831;55.918;37.746;2022-11-15T16:15:11;99193.87;;;2.05;0.00
23318;BME280;11831;55.918;37.746;2022-11-15T16:17:40;99190.31;;;1.60;0.00
23318;BME280;11831;55.918;37.746;2022-11-15T16:20:21;99183.69;;;0.79;0.00
23318;BME280;11831;55.918;37.746;2022-11-15T16:22:48;99179.97;;;1.05;0.00
23318;BME280;11831;55.918;37.746;2022-11-15T16:25:15;99177.44;;;1.80;0.00
23318;BME280;11831;55.918;37.746;2022-11-15T16:27:41;99175.56;;;1.89;0.00
23318;BME280;11831;55.918;37.746;2022-11-15T16:30:15;99179.56;;;1.84;0.00